Porter, Minnesota
Current Conditions -  °F | °C
As of 5:53 PM on Monday 20 Oct 2014 (Local Time) from KCNB Reporting Station
Clear Clear  
Wind Chill: 64°   Ceiling: Unl
Heat Index: 64°   Visibility: 10mi
Dew Point: 40°   Wind: 5mph
Humidity: 41%   Direction: 360°N
Pressure: 30.04"   Gusts: NA
Location:  44.64°N, 96.17°W
Report Text: KCNB 202253Z AUTO 36004KT 10SM CLR 18/04 A3004 RMK AO2 T01790044
Loading
Personal Weather Stations






























Interactive Weather Map
Tropical Storm Tracking
New forecast layout! Learn more

10-Day Weather Forecast

Advertisements
Track Severe Weather on mobile